Terminal Aerodrome Forecast
Issued by NWS Cleveland, OH

Home | Current Version | Previous Version | Graphics & Text | Print | Product List | Glossary Off
Versions: 1 2 3 4 5 6 7 8 9 10 11 12 13 14 15 16 17 18 19

000
FTUS41 KCLE 212300
TAFTOL
TAF
KTOL 212324Z 2200/2224 30012G18KT P6SM VCSH SCT025 OVC045
      TEMPO 2200/2203 BKN025
     FM220300 32010KT P6SM SCT015 BKN025
     FM221400 34008KT P6SM SCT025=

USA.gov is the U.S. government's official web portal to all federal, state and local government web resources and services.